Time;durP1;ratioP1;P1;durP2;ratioP2;P2;SDS_P1;SDS_P2;PMS_P1;PMS_P2;Temp;Humidity;BMP_temperature;BMP_pressure;BME280_temperature;BME280_humidity;BME280_pressure;Samples;Min_cycle;Max_cycle;Signal;HPM_P1;HPM_P2
2022/01/04 00:01:06;;;;;;;16.20;5.00;;;;;;;6.29;72.80;97574.52;106206;1280;22562;-85
2022/01/04 00:03:33;;;;;;;13.80;5.00;;;;;;;6.27;73.39;97578.29;106052;1280;137421;-84
2022/01/04 00:06:00;;;;;;;12.50;4.70;;;;;;;6.27;73.58;97575.36;106192;1280;24727;-84
2022/01/04 00:08:27;;;;;;;12.10;4.60;;;;;;;6.25;73.84;97572.13;106311;1280;148934;-83
2022/01/04 00:11:05;;;;;;;9.20;4.40;;;;;;;6.23;73.89;97569.64;106284;1280;23779;-83
2022/01/04 00:13:32;;;;;;;13.30;4.30;;;;;;;6.21;74.23;97567.00;106200;1281;137663;-83
2022/01/04 00:16:00;;;;;;;13.50;4.50;;;;;;;6.20;74.42;97560.77;106343;1281;22559;-83
2022/01/04 00:18:41;;;;;;;9.10;3.60;;;;;;;6.20;74.63;97564.24;106094;1281;22560;-83
2022/01/04 00:21:08;;;;;;;9.20;3.70;;;;;;;6.19;74.74;97563.09;105989;1281;138030;-83
2022/01/04 00:23:39;;;;;;;9.30;4.20;;;;;;;6.19;75.04;97561.56;105978;1281;25264;-83
2022/01/04 00:26:06;;;;;;;11.00;4.00;;;;;;;6.18;75.34;97562.88;106190;1280;137403;-83
2022/01/04 00:28:33;;;;;;;10.20;4.10;;;;;;;6.16;75.35;97560.75;105756;1281;25410;-82
2022/01/04 00:31:00;;;;;;;12.40;3.90;;;;;;;6.15;75.65;97558.45;105907;1282;25263;-81
2022/01/04 00:33:29;;;;;;;9.10;4.00;;;;;;;6.16;75.78;97557.23;106016;1281;138200;-82
2022/01/04 00:35:56;;;;;;;10.40;4.90;;;;;;;6.16;75.94;97555.14;106166;1282;23092;-82
2022/01/04 00:38:23;;;;;;;8.30;4.00;;;;;;;6.17;76.43;97550.16;107104;1282;137699;-85
2022/01/04 00:40:49;;;;;;;8.40;4.20;;;;;;;6.18;76.44;97547.49;106016;1282;25485;-81
2022/01/04 00:43:17;;;;;;;11.10;4.30;;;;;;;6.18;76.51;97547.20;105809;1282;24240;-82
2022/01/04 00:45:59;;;;;;;7.50;3.30;;;;;;;6.15;76.74;97545.59;105658;1282;136973;-82
2022/01/04 00:50:53;;;;;;;7.20;3.20;;;;;;;6.14;77.05;97540.76;105613;1282;138044;-82
2022/01/04 00:53:21;;;;;;;6.70;3.00;;;;;;;6.14;77.13;97540.38;106263;1281;22736;-82
2022/01/04 00:55:49;;;;;;;7.00;2.90;;;;;;;6.15;77.42;97540.61;106238;1281;137298;-82
2022/01/04 00:58:16;;;;;;;6.60;2.50;;;;;;;6.14;77.65;97536.97;106004;1282;22740;-82
2022/01/04 01:00:43;;;;;;;6.00;2.50;;;;;;;6.14;77.79;97537.13;105967;1282;22580;-82
2022/01/04 01:03:10;;;;;;;7.70;2.60;;;;;;;6.13;77.88;97537.86;106134;1281;136990;-83
2022/01/04 01:05:51;;;;;;;5.00;2.30;;;;;;;6.12;78.16;97537.80;105845;1281;22567;-83
2022/01/04 01:08:18;;;;;;;6.30;2.30;;;;;;;6.13;78.21;97535.49;106022;1281;138016;-83
2022/01/04 01:10:48;;;;;;;7.40;2.60;;;;;;;6.14;78.47;97531.61;106145;1281;22564;-82
2022/01/04 01:13:29;;;;;;;5.60;2.10;;;;;;;6.14;78.65;97523.27;106498;1282;22740;-83
2022/01/04 01:15:56;;;;;;;5.50;2.00;;;;;;;6.16;78.69;97519.42;105867;1282;137595;-82
2022/01/04 01:18:25;;;;;;;3.70;1.40;;;;;;;6.15;78.80;97516.93;106191;1281;22583;-82
2022/01/04 01:20:52;;;;;;;3.70;1.50;;;;;;;6.16;78.94;97515.88;106147;1282;140260;-82
2022/01/04 01:23:20;;;;;;;4.40;1.30;;;;;;;6.18;78.89;97511.52;106790;1281;22552;-82
2022/01/04 01:25:48;;;;;;;2.40;1.40;;;;;;;6.19;78.88;97511.33;106117;1281;138698;-82
2022/01/04 01:28:30;;;;;;;2.90;1.50;;;;;;;6.19;79.10;97511.70;106058;1281;25409;-83
2022/01/04 01:30:58;;;;;;;3.10;1.80;;;;;;;6.19;79.04;97506.67;106136;1282;22560;-82
2022/01/04 01:33:27;;;;;;;5.30;1.90;;;;;;;6.19;79.03;97502.69;106164;1281;137698;-83
2022/01/04 01:36:11;;;;;;;3.60;1.30;;;;;;;6.20;79.03;97499.14;106087;1281;22774;-82
2022/01/04 01:38:37;;;;;;;2.10;0.90;;;;;;;6.20;79.14;97500.67;105815;1284;137445;-83
2022/01/04 01:41:04;;;;;;;2.70;1.20;;;;;;;6.19;79.12;97504.97;105693;1282;25267;-82
2022/01/04 01:43:31;;;;;;;2.30;0.90;;;;;;;6.17;79.61;97502.39;105677;1281;137347;-83
2022/01/04 01:46:12;;;;;;;2.80;1.20;;;;;;;6.14;79.82;97508.64;105979;1281;25391;-82
2022/01/04 01:48:39;;;;;;;3.90;1.20;;;;;;;6.13;80.00;97510.34;105577;1281;22583;-83
2022/01/04 01:51:06;;;;;;;3.30;1.10;;;;;;;6.12;80.35;97506.70;105798;1280;137733;-83
2022/01/04 01:53:33;;;;;;;1.90;1.10;;;;;;;6.09;80.67;97500.23;106072;1281;22694;-83
2022/01/04 01:56:00;;;;;;;2.60;1.10;;;;;;;6.07;80.86;97496.06;105854;1283;137286;-82
2022/01/04 01:58:27;;;;;;;2.60;0.90;;;;;;;6.04;81.25;97503.63;106724;1281;22550;-82
2022/01/04 02:00:54;;;;;;;2.90;1.40;;;;;;;6.01;81.44;97505.90;106364;1281;22554;-82
2022/01/04 02:03:22;;;;;;;4.30;1.10;;;;;;;5.99;81.82;97502.45;105981;1281;140273;-82
2022/01/04 02:05:49;;;;;;;3.50;1.10;;;;;;;5.97;82.18;97501.17;106619;1281;25350;-82
2022/01/04 02:08:19;;;;;;;3.30;1.20;;;;;;;5.96;82.48;97496.73;106279;1281;137179;-82
2022/01/04 02:10:47;;;;;;;1.90;1.10;;;;;;;5.92;82.71;97493.89;106590;1281;22576;-83
2022/01/04 02:13:14;;;;;;;2.20;1.00;;;;;;;5.88;83.09;97499.55;106432;1281;26499;-83
2022/01/04 02:15:40;;;;;;;4.10;1.30;;;;;;;5.85;83.38;97498.02;106090;1281;137663;-81
2022/01/04 02:18:08;;;;;;;2.80;1.10;;;;;;;5.83;83.61;97494.89;106197;1281;22587;-82
2022/01/04 02:20:35;;;;;;;1.70;1.10;;;;;;;5.81;83.73;97495.23;106063;1284;138060;-81
2022/01/04 02:23:02;;;;;;;2.00;1.20;;;;;;;5.79;83.94;97486.23;106770;1282;24102;-82
2022/01/04 02:25:29;;;;;;;2.90;1.30;;;;;;;5.77;84.34;97480.90;106137;1281;138102;-81
2022/01/04 02:27:57;;;;;;;2.90;1.10;;;;;;;5.75;84.42;97478.80;106476;1281;22673;-82
2022/01/04 02:30:24;;;;;;;1.60;1.00;;;;;;;5.71;84.65;97478.83;106453;1281;22563;-83
2022/01/04 02:32:51;;;;;;;2.00;1.30;;;;;;;5.69;84.60;97477.81;105984;1281;138649;-82
2022/01/04 02:35:22;;;;;;;3.00;1.40;;;;;;;5.68;84.90;97472.55;105982;1281;22560;-82
2022/01/04 02:37:53;;;;;;;2.70;1.40;;;;;;;5.67;85.13;97467.45;105552;1287;138628;-83
2022/01/04 02:40:20;;;;;;;4.40;1.20;;;;;;;5.66;85.23;97463.76;105881;1284;24333;-83
2022/01/04 02:43:01;;;;;;;2.60;1.00;;;;;;;5.65;85.39;97461.30;105514;1284;22647;-82
2022/01/04 02:45:29;;;;;;;1.90;1.30;;;;;;;5.63;85.46;97457.59;105626;1281;137835;-84
2022/01/04 02:48:09;;;;;;;2.40;1.10;;;;;;;5.61;85.51;97450.90;105835;1281;25271;-83
2022/01/04 02:50:36;;;;;;;1.60;1.00;;;;;;;5.59;85.57;97451.52;105988;1281;137455;-83
2022/01/04 02:53:03;;;;;;;2.00;1.10;;;;;;;5.55;85.71;97448.36;106121;1284;24370;-84
2022/01/04 02:55:30;;;;;;;2.90;1.20;;;;;;;5.55;85.83;97447.53;106205;1282;137687;-84
2022/01/04 02:57:57;;;;;;;2.30;1.00;;;;;;;5.53;85.84;97437.89;105819;1284;23956;-83
2022/01/04 03:00:25;;;;;;;1.80;0.70;;;;;;;5.52;85.92;97430.46;106088;1282;25270;-84
2022/01/04 03:02:52;;;;;;;2.80;0.90;;;;;;;5.51;85.99;97429.15;105932;1284;137915;-84
2022/01/04 03:05:19;;;;;;;2.40;0.90;;;;;;;5.50;85.94;97424.75;105933;1284;23974;-84
2022/01/04 03:07:46;;;;;;;3.10;1.20;;;;;;;5.48;86.10;97417.80;105764;1283;137666;-85
2022/01/04 03:10:13;;;;;;;1.60;1.00;;;;;;;5.47;86.18;97413.99;106015;1283;23374;-83
2022/01/04 03:12:43;;;;;;;3.30;1.50;;;;;;;5.48;86.22;97409.90;106032;1281;22538;-83
2022/01/04 03:15:23;;;;;;;2.90;1.40;;;;;;;5.49;86.26;97412.64;105943;1282;137947;-83
2022/01/04 03:17:51;;;;;;;3.90;1.60;;;;;;;5.47;86.43;97403.23;106398;1281;22551;-84
2022/01/04 03:20:18;;;;;;;3.60;1.30;;;;;;;5.45;86.41;97400.61;106616;1281;137548;-83
2022/01/04 03:22:44;;;;;;;3.00;0.90;;;;;;;5.45;86.33;97390.08;106404;1281;25275;-83
2022/01/04 03:25:12;;;;;;;2.60;1.10;;;;;;;5.44;86.45;97381.52;106110;1282;22549;-83
2022/01/04 03:27:38;;;;;;;3.10;1.20;;;;;;;5.43;86.46;97373.89;105865;1282;137149;-83
2022/01/04 03:30:06;;;;;;;1.90;1.10;;;;;;;5.42;86.66;97365.41;106047;1284;25379;-84
2022/01/04 03:32:47;;;;;;;3.00;1.40;;;;;;;5.40;86.60;97356.07;105864;1281;137737;-84
2022/01/04 03:35:15;;;;;;;3.10;1.30;;;;;;;5.40;86.74;97353.04;105986;1281;24265;-83
2022/01/04 03:37:43;;;;;;;3.10;1.70;;;;;;;5.42;86.75;97353.78;105549;1282;137677;-84
2022/01/04 03:40:11;;;;;;;3.20;1.40;;;;;;;5.43;86.94;97345.61;106178;1282;23317;-84
2022/01/04 03:42:38;;;;;;;2.10;1.40;;;;;;;5.42;86.91;97333.22;105990;1282;24313;-83
2022/01/04 03:45:06;;;;;;;2.50;1.50;;;;;;;5.40;86.92;97327.77;106108;1283;137494;-84
2022/01/04 03:47:33;;;;;;;3.20;1.70;;;;;;;5.40;86.97;97332.05;106093;1284;29448;-84
2022/01/04 03:50:01;;;;;;;2.40;1.10;;;;;;;5.42;87.01;97327.20;106030;1283;137704;-84
2022/01/04 03:52:42;;;;;;;3.20;1.10;;;;;;;5.41;86.78;97329.14;105882;1282;25336;-83
2022/01/04 03:55:09;;;;;;;1.90;1.20;;;;;;;5.38;86.85;97326.65;105892;1283;24268;-84
2022/01/04 03:57:36;;;;;;;3.20;1.20;;;;;;;5.37;87.07;97326.41;105605;1281;137303;-83
2022/01/04 04:00:07;;;;;;;2.60;1.10;;;;;;;5.36;87.01;97327.33;105994;1283;22572;-83
2022/01/04 04:02:39;;;;;;;4.10;1.20;;;;;;;5.35;87.09;97322.45;105668;1283;137580;-83
2022/01/04 04:05:07;;;;;;;1.70;1.00;;;;;;;5.35;87.14;97325.34;105770;1281;22744;-84
2022/01/04 04:07:34;;;;;;;2.40;1.00;;;;;;;5.35;87.27;97320.66;105364;1281;137665;-83
2022/01/04 04:10:01;;;;;;;1.70;0.90;;;;;;;5.36;87.47;97318.98;105907;1283;23950;-83
2022/01/04 04:12:28;;;;;;;1.30;0.90;;;;;;;5.36;87.46;97317.81;106017;1281;22570;-83
2022/01/04 04:14:55;;;;;;;2.70;0.90;;;;;;;5.37;87.37;97322.96;105938;1282;137556;-83
2022/01/04 04:17:22;;;;;;;1.50;0.80;;;;;;;5.38;87.48;97317.84;106236;1282;22566;-83
2022/01/04 04:19:49;;;;;;;1.90;1.10;;;;;;;5.38;87.39;97318.92;105914;1283;137534;-83
2022/01/04 04:22:16;;;;;;;1.40;0.90;;;;;;;5.41;87.67;97323.04;105996;1282;22504;-83
2022/01/04 04:24:44;;;;;;;3.70;1.40;;;;;;;5.45;87.77;97317.88;105943;1283;23218;-83
2022/01/04 04:27:12;;;;;;;2.50;1.20;;;;;;;5.49;87.65;97315.42;105925;1281;137848;-83
2022/01/04 04:29:39;;;;;;;3.00;1.70;;;;;;;5.54;87.71;97319.17;106114;1282;24390;-83
2022/01/04 04:32:08;;;;;;;1.80;1.20;;;;;;;5.57;87.72;97317.69;105912;1281;136905;-86
2022/01/04 04:34:36;;;;;;;2.20;1.00;;;;;;;5.59;87.38;97309.14;106124;1281;23533;-83
2022/01/04 04:37:04;;;;;;;3.50;1.50;;;;;;;5.61;87.48;97312.52;105996;1282;22553;-83
2022/01/04 04:39:30;;;;;;;2.80;1.40;;;;;;;5.62;87.41;97307.73;106066;1281;137660;-83
2022/01/04 04:41:58;;;;;;;2.70;1.00;;;;;;;5.65;87.37;97308.66;105934;1282;22615;-83
2022/01/04 04:44:25;;;;;;;1.60;1.30;;;;;;;5.66;87.46;97307.74;106028;1282;137435;-83
2022/01/04 04:46:52;;;;;;;2.30;1.30;;;;;;;5.67;87.53;97305.02;106055;1282;24735;-83
2022/01/04 04:49:19;;;;;;;2.00;1.30;;;;;;;5.69;87.38;97298.73;106056;1282;24244;-83
2022/01/04 04:51:46;;;;;;;2.70;1.40;;;;;;;5.69;87.30;97299.38;105848;1281;137439;-83
2022/01/04 04:54:13;;;;;;;2.50;1.40;;;;;;;5.70;87.34;97294.64;106160;1281;22568;-83
2022/01/04 04:56:40;;;;;;;1.70;1.30;;;;;;;5.73;87.61;97294.95;105956;1281;138175;-83
2022/01/04 04:59:21;;;;;;;3.00;1.40;;;;;;;5.77;87.59;97293.63;105831;1281;31768;-83
2022/01/04 05:01:48;;;;;;;2.40;1.30;;;;;;;5.79;87.40;97287.84;105406;1284;138141;-83
2022/01/04 05:04:15;;;;;;;1.40;1.30;;;;;;;5.83;87.48;97284.02;106177;1281;25359;-83
2022/01/04 05:06:42;;;;;;;2.40;1.40;;;;;;;5.87;87.43;97278.52;106263;1282;22559;-83
2022/01/04 05:09:08;;;;;;;3.80;2.00;;;;;;;5.92;87.48;97272.49;106054;1281;137195;-83
2022/01/04 05:11:35;;;;;;;4.80;2.20;;;;;;;5.95;87.30;97274.76;106048;1281;22622;-83
2022/01/04 05:14:17;;;;;;;2.60;1.50;;;;;;;5.95;87.28;97273.77;106272;1280;137695;-83
2022/01/04 05:16:57;;;;;;;3.80;2.20;;;;;;;5.99;87.00;97275.77;105973;1281;22557;-83
2022/01/04 05:19:24;;;;;;;5.10;2.30;;;;;;;5.99;86.88;97272.69;105791;1282;137187;-82
2022/01/04 05:21:51;;;;;;;6.10;3.10;;;;;;;6.00;86.96;97271.80;105899;1282;24430;-83
2022/01/04 05:24:18;;;;;;;6.90;4.20;;;;;;;5.99;86.84;97269.73;105914;1282;22811;-83
2022/01/04 05:26:59;;;;;;;5.00;3.80;;;;;;;5.99;86.80;97272.38;105918;1282;137688;-83
2022/01/04 05:29:26;;;;;;;6.80;3.90;;;;;;;6.01;86.72;97266.08;106340;1281;22719;-83
2022/01/04 05:31:53;;;;;;;6.00;4.20;;;;;;;6.03;86.57;97263.95;106013;1281;138171;-83
2022/01/04 05:34:20;;;;;;;6.80;4.20;;;;;;;6.04;86.84;97257.48;106079;1281;22682;-83
2022/01/04 05:36:46;;;;;;;6.60;4.80;;;;;;;6.06;86.88;97255.67;106068;1281;22507;-83
2022/01/04 05:39:13;;;;;;;5.40;3.90;;;;;;;6.06;86.68;97248.92;105931;1280;137663;-83
2022/01/04 05:41:40;;;;;;;8.40;4.20;;;;;;;6.07;86.66;97246.41;106118;1282;22595;-83
2022/01/04 05:44:07;;;;;;;7.50;4.10;;;;;;;6.07;86.33;97245.21;105911;1282;137537;-83
2022/01/04 05:46:34;;;;;;;5.80;4.00;;;;;;;6.07;86.45;97242.60;105938;1281;23439;-84
2022/01/04 05:49:02;;;;;;;6.10;4.30;;;;;;;6.05;86.37;97236.31;106244;1281;25284;-84
2022/01/04 05:51:29;;;;;;;6.50;4.30;;;;;;;6.06;86.33;97232.98;105883;1282;138789;-82
2022/01/04 05:53:56;;;;;;;5.80;3.80;;;;;;;6.06;86.59;97232.18;106054;1280;22551;-82
2022/01/04 05:56:23;;;;;;;5.40;4.30;;;;;;;6.08;86.45;97224.58;105840;1282;137172;-83
2022/01/04 05:58:50;;;;;;;6.10;4.30;;;;;;;6.08;86.54;97218.73;106027;1281;23247;-83
2022/01/04 06:01:17;;;;;;;9.20;5.10;;;;;;;6.08;86.47;97214.63;106116;1282;22997;-83
2022/01/04 06:03:46;;;;;;;6.60;4.50;;;;;;;6.08;86.36;97215.06;105845;1282;137521;-83
2022/01/04 06:06:13;;;;;;;7.80;4.90;;;;;;;6.09;86.41;97215.52;105856;1281;22553;-83
2022/01/04 06:08:40;;;;;;;6.40;5.00;;;;;;;6.09;86.24;97219.34;105588;1281;137603;-83
2022/01/04 06:11:18;;;;;;;10.40;5.90;;;;;;;6.08;86.27;97221.28;105952;1282;22753;-83
2022/01/04 06:16:30;;;;;;;7.30;5.40;;;;;;;6.00;86.03;97220.83;105980;1281;22556;-84
2022/01/04 06:18:57;;;;;;;8.00;5.40;;;;;;;5.99;85.93;97224.55;106055;1281;24420;-83
2022/01/04 06:21:24;;;;;;;10.80;5.50;;;;;;;5.95;85.93;97216.88;105957;1282;137060;-83
2022/01/04 06:23:51;;;;;;;8.50;6.00;;;;;;;5.91;85.96;97210.83;105885;1282;22565;-84
2022/01/04 06:26:18;;;;;;;10.00;6.70;;;;;;;5.87;86.02;97210.12;105652;1282;137337;-86
2022/01/04 06:29:00;;;;;;;8.90;5.80;;;;;;;5.84;86.11;97202.01;105990;1282;23364;-83
2022/01/04 06:31:27;;;;;;;6.80;4.90;;;;;;;5.82;86.13;97203.92;106016;1281;137653;-83
2022/01/04 06:33:56;;;;;;;7.30;5.50;;;;;;;5.82;86.30;97199.45;105968;1281;22573;-84
2022/01/04 06:36:22;;;;;;;10.20;7.40;;;;;;;5.79;86.36;97204.58;106300;1281;22564;-84
2022/01/04 06:38:49;;;;;;;10.60;7.50;;;;;;;5.79;86.56;97209.34;105996;1281;137229;-83
2022/01/04 06:41:16;;;;;;;10.90;7.20;;;;;;;5.78;86.67;97203.27;106050;1281;22565;-84
2022/01/04 06:43:43;;;;;;;11.70;8.10;;;;;;;5.79;86.64;97199.19;105944;1281;138137;-84
2022/01/04 06:46:13;;;;;;;9.70;7.00;;;;;;;5.81;86.71;97194.45;105997;1281;22533;-83
2022/01/04 06:48:41;;;;;;;9.80;6.60;;;;;;;5.82;86.78;97193.27;105967;1282;22576;-84
2022/01/04 06:51:09;;;;;;;9.90;6.50;;;;;;;5.82;86.75;97189.16;105948;1282;137141;-83
2022/01/04 06:53:36;;;;;;;9.20;6.80;;;;;;;5.81;86.77;97188.79;106331;1280;23170;-83
2022/01/04 06:56:03;;;;;;;8.10;5.90;;;;;;;5.80;86.71;97184.77;105852;1282;137969;-83
2022/01/04 06:58:30;;;;;;;10.50;7.20;;;;;;;5.79;86.92;97179.02;105789;1282;25513;-83
2022/01/04 07:00:57;;;;;;;13.90;8.20;;;;;;;5.80;87.00;97178.06;106683;1280;22548;-83
2022/01/04 07:03:24;;;;;;;14.10;7.90;;;;;;;5.78;87.00;97174.27;106326;1281;137164;-83
2022/01/04 07:05:52;;;;;;;15.20;8.50;;;;;;;5.78;86.94;97175.77;106448;1281;24238;-83
2022/01/04 07:08:20;;;;;;;17.90;8.20;;;;;;;5.79;87.03;97178.20;106393;1281;138419;-83
2022/01/04 07:10:47;;;;;;;11.90;8.10;;;;;;;5.81;87.15;97180.20;106253;1282;22586;-83
2022/01/04 07:13:13;;;;;;;14.00;7.90;;;;;;;5.82;87.30;97181.94;106399;1281;22718;-84
2022/01/04 07:15:40;;;;;;;14.80;7.60;;;;;;;5.84;87.24;97175.38;106312;1280;137271;-83
2022/01/04 07:18:07;;;;;;;13.40;8.10;;;;;;;5.86;87.40;97176.70;106362;1281;24296;-84
2022/01/04 07:20:34;;;;;;;13.30;7.50;;;;;;;5.90;87.20;97177.85;106427;1281;137603;-83
2022/01/04 07:23:02;;;;;;;13.70;6.50;;;;;;;5.94;87.28;97171.96;106354;1282;22830;-84
2022/01/04 07:25:29;;;;;;;12.00;6.50;;;;;;;5.97;87.33;97168.41;105978;1282;137439;-83
2022/01/04 07:27:56;;;;;;;12.40;7.30;;;;;;;6.00;87.10;97167.43;106140;1282;22571;-83
2022/01/04 07:30:23;;;;;;;10.70;7.10;;;;;;;6.02;87.34;97165.13;105901;1282;22577;-83
2022/01/04 07:32:50;;;;;;;13.40;6.60;;;;;;;6.04;87.20;97157.23;106029;1281;137524;-84
2022/01/04 07:35:17;;;;;;;12.70;7.10;;;;;;;6.05;86.94;97148.91;106521;1281;22562;-83
2022/01/04 07:37:44;;;;;;;15.00;8.80;;;;;;;6.06;87.19;97144.23;106406;1281;137925;-83
2022/01/04 07:40:11;;;;;;;15.50;10.20;;;;;;;6.06;87.08;97134.92;106217;1281;25408;-83
2022/01/04 07:42:39;;;;;;;14.90;9.40;;;;;;;6.08;87.16;97129.81;106228;1281;25384;-84
2022/01/04 07:45:07;;;;;;;15.90;10.00;;;;;;;6.10;87.14;97124.61;105994;1282;137911;-84
2022/01/04 07:47:34;;;;;;;11.60;7.50;;;;;;;6.15;87.21;97117.16;106208;1281;23205;-84
2022/01/04 07:50:01;;;;;;;13.90;8.60;;;;;;;6.18;87.11;97117.20;106163;1282;137562;-84
2022/01/04 07:52:28;;;;;;;12.60;7.80;;;;;;;6.22;87.57;97114.66;106442;1281;22588;-85
2022/01/04 07:54:55;;;;;;;10.90;6.90;;;;;;;6.25;87.27;97111.34;106273;1281;22620;-86
2022/01/04 07:57:22;;;;;;;12.40;6.60;;;;;;;6.29;87.25;97112.60;105903;1281;138488;-85
2022/01/04 07:59:49;;;;;;;9.40;6.10;;;;;;;6.35;87.28;97112.06;106284;1281;24382;-85
2022/01/04 08:02:16;;;;;;;13.00;7.20;;;;;;;6.37;87.05;97108.98;105859;1282;138053;-83
2022/01/04 08:04:43;;;;;;;11.10;7.30;;;;;;;6.41;87.18;97104.41;105978;1281;22756;-83
2022/01/04 08:07:10;;;;;;;8.90;7.00;;;;;;;6.44;87.00;97095.84;105757;1281;22548;-83
2022/01/04 08:09:37;;;;;;;9.40;6.80;;;;;;;6.46;86.99;97088.78;106021;1281;137843;-82
2022/01/04 08:12:04;;;;;;;7.20;5.90;;;;;;;6.52;87.31;97095.30;106064;1279;22570;-83
2022/01/04 08:14:31;;;;;;;7.40;5.40;;;;;;;6.57;87.07;97095.99;106045;1280;137463;-83
2022/01/04 08:16:58;;;;;;;12.00;8.40;;;;;;;6.60;86.99;97091.00;105973;1281;22550;-84
2022/01/04 08:19:25;;;;;;;14.00;10.00;;;;;;;6.60;86.69;97081.53;105787;1282;137354;-85
2022/01/04 08:21:53;;;;;;;17.60;10.90;;;;;;;6.59;86.48;97071.95;105983;1281;22574;-82
2022/01/04 08:24:20;;;;;;;12.50;9.20;;;;;;;6.60;86.49;97065.80;105681;1282;22563;-83
2022/01/04 08:26:47;;;;;;;12.70;8.40;;;;;;;6.64;86.44;97058.48;105561;1282;138057;-84
2022/01/04 08:29:14;;;;;;;10.50;6.50;;;;;;;6.70;86.47;97055.40;105727;1282;24296;-83
2022/01/04 08:31:41;;;;;;;9.50;5.80;;;;;;;6.78;86.72;97054.73;106217;1281;137727;-84
2022/01/04 08:34:08;;;;;;;7.30;5.70;;;;;;;6.84;86.72;97045.42;106316;1280;25380;-83
2022/01/04 08:36:49;;;;;;;8.20;5.70;;;;;;;6.92;86.64;97045.66;105783;1281;351323;-84
2022/01/04 08:39:30;;;;;;;11.90;6.30;;;;;;;6.98;86.03;97043.35;105839;1281;138090;-84
2022/01/04 08:42:01;;;;;;;8.40;6.00;;;;;;;7.05;86.28;97042.21;105883;1281;22602;-83
2022/01/04 08:44:29;;;;;;;9.20;6.40;;;;;;;7.09;85.94;97035.36;105947;1282;137090;-83
2022/01/04 08:46:56;;;;;;;10.20;7.10;;;;;;;7.10;85.81;97028.40;106016;1282;22711;-84
2022/01/04 08:49:23;;;;;;;12.20;7.10;;;;;;;7.10;85.74;97023.66;105972;1282;25543;-84
2022/01/04 08:51:50;;;;;;;8.70;6.50;;;;;;;7.09;86.36;97018.11;105861;1281;137807;-83
2022/01/04 08:54:18;;;;;;;9.20;6.20;;;;;;;7.14;86.32;97009.48;106155;1281;22566;-83
2022/01/04 08:56:45;;;;;;;7.20;5.50;;;;;;;7.18;85.65;97006.05;105905;1281;137823;-83
2022/01/04 08:59:27;;;;;;;8.80;5.10;;;;;;;7.20;85.95;97004.43;106013;1281;22690;-84
2022/01/04 09:01:57;;;;;;;6.60;4.90;;;;;;;7.22;85.77;97002.23;105737;1281;137453;-83
2022/01/04 09:04:24;;;;;;;7.00;5.00;;;;;;;7.23;85.71;96997.04;106004;1281;22550;-84
2022/01/04 09:06:51;;;;;;;6.40;3.80;;;;;;;7.24;85.53;96988.16;105695;1282;25425;-84
2022/01/04 09:09:19;;;;;;;6.90;4.10;;;;;;;7.24;85.39;96980.91;106050;1281;138198;-83
2022/01/04 09:11:46;;;;;;;7.20;3.60;;;;;;;7.26;85.58;96979.73;105929;1282;22902;-85
2022/01/04 09:14:24;;;;;;;7.30;3.40;;;;;;;7.30;85.78;96974.52;105487;1282;137592;-85
2022/01/04 09:19:38;;;;;;;6.80;3.70;;;;;;;7.30;85.45;96963.52;105910;1281;137230;-84
2022/01/04 09:22:05;;;;;;;4.80;3.10;;;;;;;7.29;85.39;96955.17;106068;1281;24340;-84
2022/01/04 09:24:33;;;;;;;6.10;3.70;;;;;;;7.27;85.21;96949.04;106107;1282;25275;-84
2022/01/04 09:27:05;;;;;;;5.50;3.50;;;;;;;7.24;85.12;96943.33;105629;1282;137811;-83
2022/01/04 09:29:46;;;;;;;5.80;3.00;;;;;;;7.20;85.22;96937.67;106575;1281;22582;-83
2022/01/04 09:32:13;;;;;;;4.70;2.80;;;;;;;7.18;85.01;96927.05;106929;1281;137198;-83
2022/01/04 09:34:40;;;;;;;4.50;2.10;;;;;;;7.14;84.94;96917.98;107466;1281;23189;-83
2022/01/04 09:37:07;;;;;;;1.80;1.20;;;;;;;7.11;85.06;96914.65;106499;1281;25300;-83
2022/01/04 09:39:34;;;;;;;2.70;1.60;;;;;;;7.10;85.14;96906.59;106436;1281;138105;-83
2022/01/04 09:42:02;;;;;;;2.10;1.10;;;;;;;7.09;85.26;96904.03;106975;1280;22566;-84
2022/01/04 09:44:31;;;;;;;4.20;1.60;;;;;;;7.10;85.11;96898.56;106417;1281;138273;-84
2022/01/04 09:47:02;;;;;;;3.00;1.50;;;;;;;7.10;85.33;96892.25;106082;1282;24237;-84
2022/01/04 09:49:29;;;;;;;1.90;1.40;;;;;;;7.11;85.24;96883.52;106283;1281;137218;-83
2022/01/04 09:52:15;;;;;;;3.10;1.50;;;;;;;7.11;85.31;96877.08;106181;1281;22582;-84
2022/01/04 09:54:43;;;;;;;4.20;1.80;;;;;;;7.11;85.07;96875.29;106626;1280;26500;-83
2022/01/04 09:57:15;;;;;;;5.60;1.60;;;;;;;7.12;85.19;96865.67;106218;1282;138703;-83
2022/01/04 09:59:44;;;;;;;4.20;2.00;;;;;;;7.14;84.90;96857.13;106317;1281;22741;-83
2022/01/04 10:02:15;;;;;;;7.60;2.90;;;;;;;7.15;84.95;96850.04;106781;1281;137264;-84
2022/01/04 10:05:17;;;;;;;3.00;1.80;;;;;;;7.15;85.10;96842.68;106350;1281;24242;-83
2022/01/04 10:07:46;;;;;;;3.80;2.60;;;;;;;7.16;85.47;96840.90;106277;1281;137723;-83
2022/01/04 10:10:17;;;;;;;6.00;2.90;;;;;;;7.18;85.14;96834.89;106192;1281;22774;-83
2022/01/04 10:12:59;;;;;;;3.80;1.90;;;;;;;7.18;85.13;96833.75;106596;1281;22631;-83
2022/01/04 10:15:47;;;;;;;3.40;2.10;;;;;;;7.20;85.24;96835.02;106420;1280;137596;-83
2022/01/04 10:18:29;;;;;;;3.70;2.20;;;;;;;7.23;85.49;96837.84;106182;1281;22562;-83
2022/01/04 10:21:02;;;;;;;6.40;2.30;;;;;;;7.25;85.15;96834.94;106600;1281;137187;-83
2022/01/04 10:23:50;;;;;;;4.00;2.40;;;;;;;7.30;85.29;96833.11;106283;1281;22576;-83
2022/01/04 10:26:39;;;;;;;4.90;2.30;;;;;;;7.33;85.30;96830.14;105995;1281;138144;-83
2022/01/04 10:29:22;;;;;;;4.00;2.20;;;;;;;7.38;85.01;96826.96;106607;1282;23306;-84
2022/01/04 10:31:51;;;;;;;3.30;1.90;;;;;;;7.43;85.43;96821.73;105840;1282;137614;-83
2022/01/04 10:34:18;;;;;;;3.80;2.20;;;;;;;7.48;85.16;96816.17;106688;1281;22592;-84
2022/01/04 10:36:48;;;;;;;2.80;1.90;;;;;;;7.52;85.52;96809.36;107496;1281;22599;-84
2022/01/04 10:39:17;;;;;;;5.20;2.40;;;;;;;7.55;84.91;96803.63;106481;1281;138020;-83
2022/01/04 10:41:45;;;;;;;5.00;2.50;;;;;;;7.59;84.76;96800.50;107077;1281;22541;-84
2022/01/04 10:44:13;;;;;;;3.90;2.20;;;;;;;7.61;84.38;96796.16;106500;1281;137846;-84
2022/01/04 10:46:44;;;;;;;4.00;2.10;;;;;;;7.63;84.41;96795.14;106368;1282;22575;-82
2022/01/04 10:49:20;;;;;;;4.90;2.00;;;;;;;7.60;84.00;96788.10;106414;1282;26505;-83
2022/01/04 10:52:09;;;;;;;4.30;2.00;;;;;;;7.60;83.86;96786.25;106654;1282;137217;-82
2022/01/04 10:54:36;;;;;;;4.90;2.20;;;;;;;7.61;83.90;96781.27;106302;1282;23379;-82
2022/01/04 10:57:12;;;;;;;4.30;2.20;;;;;;;7.63;83.87;96774.13;106681;1282;138311;-84
2022/01/04 10:59:39;;;;;;;4.10;2.40;;;;;;;7.62;83.52;96776.29;106636;1281;24348;-84
2022/01/04 11:02:06;;;;;;;4.30;2.90;;;;;;;7.63;83.74;96766.42;105999;1282;140151;-84
2022/01/04 11:04:34;;;;;;;4.30;2.30;;;;;;;7.64;84.08;96766.42;106570;1281;22570;-83
2022/01/04 11:07:02;;;;;;;4.60;2.30;;;;;;;7.64;83.52;96758.73;106225;1282;22579;-81
2022/01/04 11:09:31;;;;;;;4.40;2.30;;;;;;;7.64;83.32;96758.14;106372;1281;138228;-83
2022/01/04 11:11:58;;;;;;;3.20;2.00;;;;;;;7.66;83.93;96754.89;106442;1280;22585;-82
2022/01/04 11:14:26;;;;;;;2.80;1.80;;;;;;;7.69;83.83;96752.67;106135;1280;137668;-82
2022/01/04 11:16:53;;;;;;;3.90;1.80;;;;;;;7.70;83.91;96753.10;105847;1282;30914;-82
2022/01/04 11:19:34;;;;;;;3.20;2.00;;;;;;;7.72;84.02;96745.97;105769;1282;137173;-83
2022/01/04 11:22:04;;;;;;;3.50;2.00;;;;;;;7.74;84.08;96746.02;105870;1282;22649;-82
2022/01/04 11:24:33;;;;;;;7.10;2.20;;;;;;;7.76;84.04;96743.63;105743;1282;24290;-83
2022/01/04 11:27:03;;;;;;;3.60;2.00;;;;;;;7.76;84.05;96733.02;105774;1281;137868;-84
2022/01/04 11:29:33;;;;;;;;;;;;;;;7.78;84.30;96735.13;106010;1279;22537;-84
2022/01/04 11:32:05;;;;;;;3.00;1.50;;;;;;;7.78;84.28;96730.30;105622;1281;123851;-84
2022/01/04 11:35:01;;;;;;;4.10;2.00;;;;;;;7.78;84.60;96722.77;105914;1282;24419;-84
2022/01/04 11:37:28;;;;;;;4.30;2.00;;;;;;;7.79;84.80;96713.95;105625;1282;30318;-84
2022/01/04 11:39:56;;;;;;;3.90;2.10;;;;;;;7.79;84.73;96707.76;105601;1282;137822;-84
2022/01/04 11:42:38;;;;;;;2.40;1.90;;;;;;;7.81;84.64;96707.44;105617;1284;24984;-83
2022/01/04 11:45:10;;;;;;;4.50;2.30;;;;;;;7.83;85.22;96702.73;105565;1284;137902;-83
2022/01/04 11:47:51;;;;;;;4.20;2.30;;;;;;;7.84;85.15;96695.25;105919;1282;29875;-83